createdAt,value
2019-04-27T00:00:37.035Z,14.00
2019-04-27T00:01:45.247Z,21.20
2019-04-27T00:02:57.474Z,19.00
2019-04-27T00:04:16.244Z,19.00
2019-04-27T00:05:33.228Z,21.20
2019-04-27T00:06:38.171Z,17.60
2019-04-27T00:07:43.938Z,19.20
2019-04-27T00:08:48.623Z,14.60
2019-04-27T00:09:55.595Z,18.00
2019-04-27T00:10:59.707Z,16.20
2019-04-27T00:12:07.461Z,21.00
2019-04-27T00:13:09.335Z,20.60
2019-04-27T00:14:14.959Z,18.40
2019-04-27T00:15:36.624Z,16.60
2019-04-27T00:16:50.481Z,18.00
2019-04-27T00:17:58.115Z,15.20
2019-04-27T00:18:59.827Z,19.40
2019-04-27T00:20:08.927Z,18.00
2019-04-27T00:21:21.496Z,18.40
2019-04-27T00:22:26.048Z,18.80
2019-04-27T00:23:30.323Z,17.80
2019-04-27T00:24:33.558Z,14.40
2019-04-27T00:25:37.141Z,18.00
2019-04-27T00:26:39.384Z,16.60
2019-04-27T00:27:41.692Z,18.40
2019-04-27T00:28:44.758Z,16.80
2019-04-27T00:29:47.701Z,19.00
2019-04-27T00:30:49.658Z,20.60
2019-04-27T00:31:53.413Z,16.80
2019-04-27T00:32:58.048Z,16.20
2019-04-27T00:34:00.292Z,20.20
2019-04-27T00:35:03.720Z,20.20
2019-04-27T00:36:25.696Z,21.60
2019-04-27T00:37:45.056Z,19.00
2019-04-27T00:38:55.707Z,19.80
2019-04-27T00:40:03.470Z,19.00
2019-04-27T00:41:07.931Z,20.20
2019-04-27T00:42:13.551Z,16.80
2019-04-27T00:43:16.088Z,13.40
2019-04-27T00:44:19.041Z,17.20
2019-04-27T00:45:23.309Z,16.20
2019-04-27T00:46:25.724Z,17.40
2019-04-27T00:47:28.900Z,17.20
2019-04-27T00:48:30.871Z,17.00
2019-04-27T00:49:33.679Z,18.60
2019-04-27T00:50:35.973Z,19.40
2019-04-27T00:51:38.014Z,17.20
2019-04-27T00:52:40.347Z,18.00
2019-04-27T00:53:43.580Z,16.80
2019-04-27T00:54:47.300Z,23.60
2019-04-27T00:55:54.196Z,16.60
2019-04-27T00:56:56.647Z,16.20
2019-04-27T00:58:10.117Z,21.00
2019-04-27T00:59:23.921Z,18.20
2019-04-27T01:00:45.097Z,17.80
2019-04-27T01:01:55.097Z,23.40
2019-04-27T01:03:05.373Z,16.40
2019-04-27T01:04:26.202Z,19.80
2019-04-27T01:05:30.011Z,15.00
2019-04-27T01:06:33.612Z,17.40
2019-04-27T01:07:36.258Z,16.60
2019-04-27T01:08:39.149Z,16.60
2019-04-27T01:09:40.885Z,18.80
2019-04-27T01:10:43.851Z,17.40
2019-04-27T01:11:46.037Z,19.80
2019-04-27T01:12:48.529Z,15.60
2019-04-27T01:13:50.859Z,20.00
2019-04-27T01:14:54.656Z,19.40
2019-04-27T01:15:57.155Z,20.20
2019-04-27T01:17:01.437Z,18.60
2019-04-27T01:18:12.366Z,21.60
2019-04-27T01:19:10.400Z,18.20
2019-04-27T01:20:12.960Z,18.00
2019-04-27T01:21:15.545Z,15.60
2019-04-27T01:22:18.857Z,15.60
2019-04-27T01:23:21.550Z,22.20
2019-04-27T01:24:23.782Z,17.40
2019-04-27T01:25:28.964Z,15.80
2019-04-27T01:26:38.711Z,15.40
2019-04-27T01:27:40.753Z,16.60
2019-04-27T01:28:53.952Z,14.00
2019-04-27T01:29:56.238Z,17.00
2019-04-27T01:31:02.986Z,14.80
2019-04-27T01:32:06.546Z,18.20
2019-04-27T01:33:11.449Z,17.40
2019-04-27T01:34:14.189Z,17.40
2019-04-27T01:35:16.723Z,12.20
2019-04-27T01:36:19.251Z,16.20
2019-04-27T01:37:21.546Z,17.00
2019-04-27T01:38:24.541Z,14.60
2019-04-27T01:39:28.932Z,16.40
2019-04-27T01:40:31.563Z,23.60
2019-04-27T01:41:33.830Z,12.20
2019-04-27T01:42:36.374Z,14.00
2019-04-27T01:43:39.183Z,14.00
2019-04-27T01:44:41.700Z,15.20
2019-04-27T01:45:44.144Z,12.80
2019-04-27T01:46:46.371Z,15.40
2019-04-27T01:47:50.097Z,15.80
2019-04-27T01:48:52.122Z,18.20
2019-04-27T01:49:54.598Z,16.00
2019-04-27T01:50:59.262Z,16.20
2019-04-27T01:52:02.348Z,14.80
2019-04-27T01:53:04.782Z,14.80
2019-04-27T01:54:10.372Z,17.40
2019-04-27T01:55:12.916Z,17.20
2019-04-27T01:56:15.319Z,15.00
2019-04-27T01:57:19.458Z,16.60
2019-04-27T01:58:22.005Z,17.40
2019-04-27T01:59:24.088Z,12.60
2019-04-27T02:00:44.377Z,16.00
2019-04-27T02:01:54.692Z,16.40
2019-04-27T02:03:00.208Z,14.80
2019-04-27T02:04:14.265Z,16.20
2019-04-27T02:05:21.437Z,12.20
2019-04-27T02:06:25.275Z,18.00
2019-04-27T02:07:29.939Z,16.20
2019-04-27T02:08:32.307Z,15.40
2019-04-27T02:09:35.063Z,12.20
2019-04-27T02:10:37.446Z,14.40
2019-04-27T02:11:40.813Z,17.60
2019-04-27T02:12:44.049Z,15.40
2019-04-27T02:13:50.832Z,19.40
2019-04-27T02:14:53.054Z,17.40
2019-04-27T02:15:54.885Z,21.80
2019-04-27T02:16:57.409Z,15.80
2019-04-27T02:18:00.102Z,17.00
2019-04-27T02:19:03.181Z,22.40
2019-04-27T02:20:06.801Z,16.80
2019-04-27T02:21:10.539Z,15.80
2019-04-27T02:22:12.727Z,13.60
2019-04-27T02:23:17.013Z,16.40
2019-04-27T02:24:19.872Z,17.20
2019-04-27T02:25:22.744Z,16.40
2019-04-27T02:26:25.031Z,22.20
2019-04-27T02:27:28.712Z,16.60
2019-04-27T02:28:43.179Z,24.00
2019-04-27T02:30:02.956Z,17.60
2019-04-27T02:31:25.397Z,17.20
2019-04-27T02:32:45.158Z,20.80
2019-04-27T02:34:04.483Z,19.00
2019-04-27T02:35:09.367Z,18.60
2019-04-27T02:36:15.196Z,17.00
2019-04-27T02:37:16.491Z,16.80
2019-04-27T02:38:20.697Z,18.60
2019-04-27T02:39:23.442Z,22.00
2019-04-27T02:40:53.978Z,18.40
2019-04-27T02:41:56.333Z,17.20
2019-04-27T02:42:59.859Z,19.20
2019-04-27T02:44:14.796Z,19.80
2019-04-27T02:45:19.594Z,16.80
2019-04-27T02:46:21.656Z,16.20
2019-04-27T02:47:24.159Z,20.00
2019-04-27T02:48:26.376Z,16.60
2019-04-27T02:49:30.432Z,16.60
2019-04-27T02:50:33.237Z,17.80
2019-04-27T02:51:36.877Z,14.40
2019-04-27T02:52:41.038Z,25.20
2019-04-27T02:53:50.741Z,19.20
2019-04-27T02:54:52.499Z,14.40
2019-04-27T02:55:54.739Z,19.20
2019-04-27T02:56:59.349Z,17.80
2019-04-27T02:58:01.984Z,14.20
2019-04-27T02:59:04.844Z,21.20
2019-04-27T03:00:10.482Z,17.00
2019-04-27T03:01:13.116Z,21.00
2019-04-27T03:02:21.139Z,21.40
2019-04-27T03:03:23.892Z,16.60
2019-04-27T03:04:25.793Z,16.00
2019-04-27T03:05:30.112Z,19.60
2019-04-27T03:06:33.498Z,25.40
2019-04-27T03:07:36.210Z,18.80
2019-04-27T03:08:39.417Z,19.60
2019-04-27T03:09:42.593Z,19.80
2019-04-27T03:10:44.779Z,19.00
2019-04-27T03:11:49.781Z,21.40
2019-04-27T03:12:53.801Z,18.80
2019-04-27T03:14:27.955Z,18.20
2019-04-27T03:15:23.378Z,15.20
2019-04-27T03:16:32.442Z,27.40
2019-04-27T03:17:39.363Z,22.00
2019-04-27T03:18:42.949Z,20.00
2019-04-27T03:19:52.272Z,20.40
2019-04-27T03:21:02.419Z,18.80
2019-04-27T03:22:13.771Z,22.80
2019-04-27T03:23:17.019Z,19.40
2019-04-27T03:24:23.019Z,20.40
2019-04-27T03:25:45.946Z,16.80
2019-04-27T03:26:50.612Z,19.60
2019-04-27T03:28:02.077Z,18.00
2019-04-27T03:29:02.535Z,14.80
2019-04-27T03:30:12.454Z,15.80
2019-04-27T03:31:15.173Z,15.80
2019-04-27T03:32:22.034Z,13.80
2019-04-27T03:33:22.892Z,14.40
2019-04-27T03:34:24.911Z,17.80
2019-04-27T03:35:32.124Z,17.20
2019-04-27T03:36:32.078Z,20.20
2019-04-27T03:37:34.625Z,21.20
2019-04-27T03:38:39.567Z,15.40
2019-04-27T03:39:41.348Z,21.00
2019-04-27T03:40:43.988Z,15.20
2019-04-27T03:41:46.274Z,17.00
2019-04-27T03:42:50.891Z,22.20
2019-04-27T03:43:54.094Z,14.80
2019-04-27T03:44:56.765Z,23.00
2019-04-27T03:46:00.552Z,20.40
2019-04-27T03:47:04.314Z,22.40
2019-04-27T03:48:06.873Z,20.00
2019-04-27T03:49:09.858Z,17.20
2019-04-27T03:50:14.899Z,16.60
2019-04-27T03:51:20.141Z,18.60
2019-04-27T03:52:42.179Z,16.60
2019-04-27T03:53:49.779Z,20.00
2019-04-27T03:54:59.906Z,21.80
2019-04-27T03:56:21.532Z,24.20
2019-04-27T03:57:31.705Z,19.00
2019-04-27T03:58:36.035Z,19.20
2019-04-27T03:59:56.553Z,24.20
2019-04-27T04:01:00.024Z,25.40
2019-04-27T04:02:04.640Z,26.60
2019-04-27T04:03:07.517Z,27.20
2019-04-27T04:04:10.708Z,23.20
2019-04-27T04:05:13.383Z,21.60
2019-04-27T04:06:16.356Z,20.40
2019-04-27T04:07:20.588Z,23.40
2019-04-27T04:08:23.341Z,17.20
2019-04-27T04:09:29.557Z,17.40
2019-04-27T04:10:33.731Z,19.80
2019-04-27T04:11:41.213Z,20.80
2019-04-27T04:12:50.611Z,21.80
2019-04-27T04:13:54.726Z,21.00
2019-04-27T04:14:59.627Z,27.60
2019-04-27T04:16:13.054Z,22.00
2019-04-27T04:17:19.771Z,23.60
2019-04-27T04:18:23.692Z,25.20
2019-04-27T04:19:25.851Z,19.40
2019-04-27T04:20:30.413Z,20.80
2019-04-27T04:21:33.476Z,16.40
2019-04-27T04:22:36.293Z,22.20
2019-04-27T04:23:40.213Z,17.40
2019-04-27T04:24:42.903Z,16.00
2019-04-27T04:25:46.498Z,20.40
2019-04-27T04:26:50.288Z,18.00
2019-04-27T04:27:52.745Z,13.80
2019-04-27T04:28:55.653Z,21.20
2019-04-27T04:29:59.456Z,22.20
2019-04-27T04:31:01.929Z,21.80
2019-04-27T04:32:04.090Z,22.40
2019-04-27T04:33:05.821Z,24.00
2019-04-27T04:34:09.680Z,21.20
2019-04-27T04:35:21.706Z,22.40
2019-04-27T04:36:25.093Z,22.20
2019-04-27T04:37:29.411Z,22.00
2019-04-27T04:38:31.091Z,22.40
2019-04-27T04:39:34.203Z,14.40
2019-04-27T04:40:50.417Z,20.20
2019-04-27T04:42:10.471Z,26.20
2019-04-27T04:43:14.973Z,25.60
2019-04-27T04:44:40.026Z,19.80
2019-04-27T04:46:01.209Z,21.40
2019-04-27T04:47:16.324Z,15.40
2019-04-27T04:48:20.574Z,20.60
2019-04-27T04:49:23.197Z,19.40
2019-04-27T04:50:25.489Z,20.80
2019-04-27T04:51:40.193Z,17.60
2019-04-27T04:52:42.600Z,20.60
2019-04-27T04:53:44.799Z,24.80
2019-04-27T04:54:49.376Z,20.40
2019-04-27T04:55:51.938Z,18.80
2019-04-27T04:56:54.442Z,22.20
2019-04-27T04:57:56.184Z,21.60
2019-04-27T04:59:00.026Z,20.60
2019-04-27T05:00:06.040Z,30.00
2019-04-27T05:01:09.928Z,22.40
2019-04-27T05:02:12.846Z,20.20
2019-04-27T05:03:15.832Z,24.80
2019-04-27T05:04:19.321Z,26.00
2019-04-27T05:05:21.995Z,30.60
2019-04-27T05:06:25.635Z,26.00
2019-04-27T05:07:29.698Z,24.80
2019-04-27T05:08:33.941Z,27.80
2019-04-27T05:09:36.288Z,20.60
2019-04-27T05:10:39.483Z,26.00
2019-04-27T05:11:42.169Z,26.00
2019-04-27T05:12:44.293Z,26.00
2019-04-27T05:13:46.721Z,22.60
2019-04-27T05:14:49.037Z,26.00
2019-04-27T05:15:52.997Z,26.20
2019-04-27T05:16:55.137Z,24.20
2019-04-27T05:17:59.184Z,30.60
2019-04-27T05:19:01.451Z,20.40
2019-04-27T05:20:06.245Z,26.00
2019-04-27T05:21:13.732Z,23.40
2019-04-27T05:22:15.915Z,25.20
2019-04-27T05:23:18.680Z,33.40
2019-04-27T05:24:21.172Z,19.80
2019-04-27T05:25:23.630Z,28.60
2019-04-27T05:26:29.376Z,20.00
2019-04-27T05:27:31.824Z,24.40
2019-04-27T05:28:33.628Z,21.00
2019-04-27T05:29:36.213Z,27.20
2019-04-27T05:30:39.093Z,30.00
2019-04-27T05:31:42.898Z,27.60
2019-04-27T05:32:45.360Z,31.20
2019-04-27T05:33:49.057Z,35.40
2019-04-27T05:34:51.853Z,26.40
2019-04-27T05:35:54.238Z,32.20
2019-04-27T05:36:56.550Z,30.40
2019-04-27T05:38:00.941Z,27.40
2019-04-27T05:39:05.446Z,29.60
2019-04-27T05:40:09.138Z,24.00
2019-04-27T05:41:11.871Z,26.80
2019-04-27T05:42:17.136Z,27.80
2019-04-27T05:43:21.035Z,30.40
2019-04-27T05:44:33.970Z,27.60
2019-04-27T05:45:53.167Z,29.20
2019-04-27T05:46:56.437Z,29.60
2019-04-27T05:48:03.186Z,32.80
2019-04-27T05:49:09.526Z,31.00
2019-04-27T05:50:13.517Z,33.80
2019-04-27T05:51:17.113Z,27.60
2019-04-27T05:52:29.357Z,32.60
2019-04-27T05:53:32.017Z,29.80
2019-04-27T05:54:34.097Z,27.60
2019-04-27T05:55:36.192Z,38.00
2019-04-27T05:56:40.147Z,36.20
2019-04-27T05:57:43.114Z,35.40
2019-04-27T05:58:45.785Z,37.00
2019-04-27T05:59:49.857Z,33.40
2019-04-27T06:00:52.721Z,37.80
2019-04-27T06:01:59.148Z,37.80
2019-04-27T06:03:02.760Z,35.20
2019-04-27T06:04:05.729Z,38.60
2019-04-27T06:05:08.825Z,38.80
2019-04-27T06:06:12.912Z,31.00
2019-04-27T06:07:16.944Z,30.00
2019-04-27T06:08:21.105Z,28.80
2019-04-27T06:09:23.952Z,37.60
2019-04-27T06:10:26.851Z,32.40
2019-04-27T06:11:29.576Z,35.80
2019-04-27T06:12:31.796Z,31.80
2019-04-27T06:13:34.084Z,33.00
2019-04-27T06:14:36.290Z,37.40
2019-04-27T06:15:38.950Z,35.60
2019-04-27T06:16:42.970Z,32.20
2019-04-27T06:17:45.221Z,34.00
2019-04-27T06:18:49.323Z,40.40
2019-04-27T06:19:52.932Z,42.40
2019-04-27T06:20:56.504Z,36.20
2019-04-27T06:22:01.283Z,32.20
2019-04-27T06:23:05.733Z,39.60
2019-04-27T06:24:08.782Z,39.40
2019-04-27T06:25:12.162Z,36.80
2019-04-27T06:26:15.572Z,38.20
2019-04-27T06:27:21.084Z,39.40
2019-04-27T06:28:23.966Z,41.00
2019-04-27T06:29:26.590Z,44.80
2019-04-27T06:30:29.358Z,47.80
2019-04-27T06:31:31.855Z,31.00
2019-04-27T06:32:34.749Z,45.00
2019-04-27T06:33:36.962Z,46.60
2019-04-27T06:34:39.335Z,47.60
2019-04-27T06:35:41.746Z,40.40
2019-04-27T06:36:43.868Z,42.00
2019-04-27T06:37:46.473Z,43.40
2019-04-27T06:38:51.093Z,48.80
2019-04-27T06:39:53.489Z,36.20
2019-04-27T06:40:56.185Z,47.00
2019-04-27T06:42:01.096Z,34.80
2019-04-27T06:43:03.503Z,46.80
2019-04-27T06:44:06.097Z,39.60
2019-04-27T06:45:09.930Z,36.40
2019-04-27T06:46:11.869Z,43.00
2019-04-27T06:47:14.099Z,52.80
2019-04-27T06:48:17.042Z,48.80
2019-04-27T06:49:19.601Z,44.20
2019-04-27T06:50:21.993Z,40.20
2019-04-27T06:51:24.716Z,44.00
2019-04-27T06:52:29.196Z,47.20
2019-04-27T06:53:35.894Z,34.40
2019-04-27T06:54:38.935Z,45.20
2019-04-27T06:55:41.696Z,43.20
2019-04-27T06:56:44.766Z,47.00
2019-04-27T06:57:49.103Z,40.00
2019-04-27T06:58:51.959Z,45.40
2019-04-27T06:59:54.603Z,55.00
2019-04-27T07:00:56.809Z,49.60
2019-04-27T07:02:02.696Z,46.20
2019-04-27T07:03:05.494Z,54.60
2019-04-27T07:04:08.809Z,52.60
2019-04-27T07:05:13.120Z,37.00
2019-04-27T07:06:15.530Z,57.80
2019-04-27T07:07:19.379Z,56.80
2019-04-27T07:08:21.790Z,54.80
2019-04-27T07:09:23.692Z,56.00
2019-04-27T07:10:25.466Z,41.40
2019-04-27T07:11:29.594Z,44.40
2019-04-27T07:12:35.402Z,48.40
2019-04-27T07:13:39.029Z,48.00
2019-04-27T07:14:52.231Z,35.80
2019-04-27T07:15:45.535Z,34.80
2019-04-27T07:16:50.756Z,49.20
2019-04-27T07:17:53.394Z,42.60
2019-04-27T07:18:59.234Z,46.20
2019-04-27T07:20:03.701Z,39.80
2019-04-27T07:21:16.288Z,48.40
2019-04-27T07:22:11.475Z,51.00
2019-04-27T07:23:14.920Z,41.60
2019-04-27T07:24:19.487Z,45.20
2019-04-27T07:25:22.851Z,49.40
2019-04-27T07:26:27.288Z,43.00
2019-04-27T07:27:29.400Z,43.40
2019-04-27T07:28:32.712Z,43.60
2019-04-27T07:29:36.075Z,49.40
2019-04-27T07:30:38.815Z,59.20
2019-04-27T07:31:41.532Z,58.00
2019-04-27T07:32:43.745Z,48.40
2019-04-27T07:33:45.662Z,52.20
2019-04-27T07:34:49.777Z,54.60
2019-04-27T07:35:52.015Z,44.80
2019-04-27T07:36:54.491Z,48.80
2019-04-27T07:37:58.813Z,57.40
2019-04-27T07:39:04.678Z,55.20
2019-04-27T07:40:09.006Z,48.20
2019-04-27T07:41:11.684Z,46.20
2019-04-27T07:42:13.905Z,51.00
2019-04-27T07:43:34.153Z,53.20
2019-04-27T07:44:39.138Z,57.20
2019-04-27T07:45:43.018Z,57.40
2019-04-27T07:46:51.334Z,57.60
2019-04-27T07:47:54.321Z,59.40
2019-04-27T07:48:56.964Z,50.80
2019-04-27T07:50:01.516Z,59.80
2019-04-27T07:51:03.895Z,56.80
2019-04-27T07:52:06.354Z,56.40
2019-04-27T07:53:09.220Z,50.80
2019-04-27T07:54:11.380Z,44.00
2019-04-27T07:55:13.796Z,53.00
2019-04-27T07:56:16.506Z,32.40
2019-04-27T07:57:19.828Z,35.20
2019-04-27T07:58:22.423Z,25.40
2019-04-27T07:59:24.630Z,31.80
2019-04-27T08:00:28.772Z,41.20
2019-04-27T08:01:32.177Z,35.80
2019-04-27T08:02:34.682Z,42.20
2019-04-27T08:03:36.662Z,37.40
2019-04-27T08:04:40.030Z,44.40
2019-04-27T08:05:42.601Z,41.60
2019-04-27T08:06:44.664Z,42.80
2019-04-27T08:07:49.073Z,45.40
2019-04-27T08:08:52.109Z,37.80
2019-04-27T08:09:54.482Z,31.20
2019-04-27T08:10:59.408Z,30.20
2019-04-27T08:12:02.036Z,33.80
2019-04-27T08:13:04.272Z,35.20
2019-04-27T08:14:06.586Z,31.20
2019-04-27T08:15:10.020Z,31.20
2019-04-27T08:16:12.163Z,32.80
2019-04-27T08:17:14.751Z,49.40
2019-04-27T08:18:18.987Z,37.40
2019-04-27T08:19:20.844Z,43.40
2019-04-27T08:20:23.219Z,42.60
2019-04-27T08:21:26.367Z,51.40
2019-04-27T08:22:29.152Z,38.80
2019-04-27T08:23:31.807Z,46.80
2019-04-27T08:24:34.691Z,53.40
2019-04-27T08:25:39.196Z,39.00
2019-04-27T08:26:51.111Z,42.80
2019-04-27T08:27:54.756Z,46.60
2019-04-27T08:29:12.194Z,45.80
2019-04-27T08:30:20.873Z,45.40
2019-04-27T08:31:25.829Z,32.60
2019-04-27T08:32:41.517Z,31.60
2019-04-27T08:33:44.009Z,36.20
2019-04-27T08:34:46.559Z,28.80
2019-04-27T08:35:49.308Z,30.60
2019-04-27T08:36:52.052Z,29.40
2019-04-27T08:37:54.628Z,26.00
2019-04-27T08:38:58.753Z,40.20
2019-04-27T08:40:00.782Z,29.80
2019-04-27T08:41:03.918Z,38.40
2019-04-27T08:42:06.256Z,35.60
2019-04-27T08:43:09.226Z,40.20
2019-04-27T08:44:11.466Z,36.20
2019-04-27T08:45:14.176Z,41.40
2019-04-27T08:46:16.584Z,48.40
2019-04-27T08:47:19.567Z,46.00
2019-04-27T08:48:33.839Z,42.20
2019-04-27T08:49:29.239Z,45.40
2019-04-27T08:50:31.586Z,47.60
2019-04-27T08:51:33.854Z,41.00
2019-04-27T08:52:36.674Z,29.20
2019-04-27T08:53:39.806Z,36.80
2019-04-27T08:54:42.288Z,36.00
2019-04-27T08:55:44.699Z,34.60
2019-04-27T08:56:47.042Z,45.40
2019-04-27T08:57:49.085Z,33.40
2019-04-27T08:58:51.785Z,34.40
2019-04-27T08:59:54.460Z,35.80
2019-04-27T09:00:56.556Z,27.40
2019-04-27T09:01:59.198Z,37.00
2019-04-27T09:03:01.400Z,33.00
2019-04-27T09:04:03.842Z,43.40
2019-04-27T09:05:06.977Z,39.20
2019-04-27T09:06:10.792Z,40.40
2019-04-27T09:07:31.887Z,39.80
2019-04-27T09:08:36.175Z,34.20
2019-04-27T09:09:42.576Z,34.40
2019-04-27T09:10:50.925Z,47.00
2019-04-27T09:12:11.867Z,42.80
2019-04-27T09:13:25.587Z,45.80
2019-04-27T09:14:40.703Z,36.40
2019-04-27T09:16:00.179Z,31.20
2019-04-27T09:17:07.195Z,32.20
2019-04-27T09:18:12.714Z,33.00
2019-04-27T09:19:20.051Z,33.40
2019-04-27T09:20:24.245Z,39.80
2019-04-27T09:21:29.325Z,40.20
2019-04-27T09:22:32.154Z,38.00
2019-04-27T09:23:34.559Z,38.80
2019-04-27T09:24:36.908Z,35.80
2019-04-27T09:25:39.677Z,46.00
2019-04-27T09:26:42.813Z,37.60
2019-04-27T09:27:45.693Z,41.20
2019-04-27T09:28:49.307Z,38.40
2019-04-27T09:29:52.133Z,36.20
2019-04-27T09:30:55.567Z,35.60
2019-04-27T09:31:59.558Z,42.80
2019-04-27T09:33:03.425Z,38.80
2019-04-27T09:34:05.839Z,34.00
2019-04-27T09:35:08.952Z,35.00
2019-04-27T09:36:11.281Z,39.00
2019-04-27T09:37:15.931Z,44.40
2019-04-27T09:38:18.694Z,37.80
2019-04-27T09:39:22.567Z,37.80
2019-04-27T09:40:26.639Z,44.40
2019-04-27T09:41:29.053Z,38.20
2019-04-27T09:42:31.700Z,37.60
2019-04-27T09:43:34.252Z,37.20
2019-04-27T09:44:38.066Z,41.60
2019-04-27T09:45:41.708Z,47.40
2019-04-27T09:46:44.203Z,51.40
2019-04-27T09:47:46.920Z,46.20
2019-04-27T09:48:51.699Z,45.00
2019-04-27T09:49:54.068Z,40.80
2019-04-27T09:50:56.558Z,38.80
2019-04-27T09:51:59.424Z,35.40
2019-04-27T09:53:01.816Z,33.40
2019-04-27T09:54:05.782Z,38.60
2019-04-27T09:55:09.007Z,33.40
2019-04-27T09:56:11.920Z,37.20
2019-04-27T09:57:16.050Z,45.20
2019-04-27T09:58:18.754Z,39.40
2019-04-27T09:59:21.438Z,43.20
2019-04-27T10:00:24.746Z,40.80
2019-04-27T10:01:28.906Z,40.20
2019-04-27T10:02:31.521Z,42.00
2019-04-27T10:03:36.061Z,43.20
2019-04-27T10:04:38.630Z,41.00
2019-04-27T10:05:43.154Z,36.20
2019-04-27T10:06:46.187Z,35.40
2019-04-27T10:07:49.685Z,25.80
2019-04-27T10:08:52.446Z,31.00
2019-04-27T10:09:55.987Z,35.80
2019-04-27T10:10:58.671Z,35.00
2019-04-27T10:12:01.203Z,43.00
2019-04-27T10:13:04.026Z,37.20
2019-04-27T10:14:07.435Z,38.00
2019-04-27T10:15:11.751Z,37.20
2019-04-27T10:16:13.793Z,33.60
2019-04-27T10:17:16.708Z,37.60
2019-04-27T10:18:19.069Z,37.20
2019-04-27T10:19:28.694Z,31.60
2019-04-27T10:20:25.321Z,38.60
2019-04-27T10:21:28.122Z,31.00
2019-04-27T10:22:40.558Z,39.60
2019-04-27T10:23:36.511Z,41.20
2019-04-27T10:24:39.791Z,34.80
2019-04-27T10:25:42.090Z,47.00
2019-04-27T10:26:44.891Z,39.60
2019-04-27T10:27:49.408Z,37.00
2019-04-27T10:28:51.987Z,33.60
2019-04-27T10:29:54.663Z,40.00
2019-04-27T10:30:56.999Z,42.40
2019-04-27T10:31:59.473Z,40.20
2019-04-27T10:33:03.297Z,43.60
2019-04-27T10:34:05.985Z,48.40
2019-04-27T10:35:09.147Z,51.40
2019-04-27T10:36:12.167Z,45.60
2019-04-27T10:37:16.035Z,37.40
2019-04-27T10:38:18.973Z,52.00
2019-04-27T10:39:21.567Z,46.60
2019-04-27T10:40:23.871Z,48.80
2019-04-27T10:41:26.520Z,47.20
2019-04-27T10:42:28.625Z,44.00
2019-04-27T10:43:30.506Z,47.60
2019-04-27T10:44:32.791Z,46.40
2019-04-27T10:45:35.765Z,45.40
2019-04-27T10:46:41.370Z,40.00
2019-04-27T10:47:43.575Z,41.80
2019-04-27T10:48:47.093Z,36.60
2019-04-27T10:49:51.533Z,43.60
2019-04-27T10:50:54.419Z,35.60
2019-04-27T10:51:56.968Z,47.20
2019-04-27T10:52:59.496Z,38.20
2019-04-27T10:54:04.017Z,27.40
2019-04-27T10:55:12.211Z,37.40
2019-04-27T10:56:14.584Z,31.40
2019-04-27T10:57:17.274Z,29.00
2019-04-27T10:58:19.518Z,32.00
2019-04-27T10:59:22.165Z,38.40
2019-04-27T11:00:27.987Z,40.60
2019-04-27T11:01:31.628Z,43.40
2019-04-27T11:02:34.174Z,37.20
2019-04-27T11:03:55.478Z,36.40
2019-04-27T11:05:01.234Z,38.20
2019-04-27T11:06:22.937Z,34.20
2019-04-27T11:07:28.140Z,40.20
2019-04-27T11:08:31.112Z,40.40
2019-04-27T11:09:34.454Z,29.80
2019-04-27T11:10:36.351Z,32.80
2019-04-27T11:11:40.310Z,24.40
2019-04-27T11:12:42.576Z,38.20
2019-04-27T11:13:46.072Z,41.20
2019-04-27T11:14:48.754Z,32.20
2019-04-27T11:15:50.606Z,39.80
2019-04-27T11:16:53.743Z,38.40
2019-04-27T11:17:56.307Z,36.20
2019-04-27T11:18:58.857Z,29.60
2019-04-27T11:20:02.952Z,36.60
2019-04-27T11:21:05.836Z,22.00
2019-04-27T11:22:09.029Z,25.60
2019-04-27T11:23:12.409Z,30.20
2019-04-27T11:24:14.484Z,32.40
2019-04-27T11:25:17.541Z,31.80
2019-04-27T11:26:19.886Z,21.80
2019-04-27T11:27:24.127Z,24.80
2019-04-27T11:28:26.471Z,25.00
2019-04-27T11:29:29.177Z,34.80
2019-04-27T11:30:31.670Z,33.80
2019-04-27T11:31:36.266Z,37.20
2019-04-27T11:32:38.846Z,25.40
2019-04-27T11:33:40.603Z,30.60
2019-04-27T11:35:00.246Z,23.00
2019-04-27T11:36:16.627Z,26.40
2019-04-27T11:37:20.956Z,24.20
2019-04-27T11:38:23.269Z,23.20
2019-04-27T11:39:26.086Z,22.40
2019-04-27T11:40:29.288Z,24.20
2019-04-27T11:41:31.678Z,27.80
2019-04-27T11:42:33.481Z,28.40
2019-04-27T11:43:36.363Z,25.00
2019-04-27T11:44:40.433Z,34.40
2019-04-27T11:45:42.931Z,39.00
2019-04-27T11:46:47.538Z,24.60
2019-04-27T11:47:50.329Z,36.20
2019-04-27T11:48:52.536Z,32.80
2019-04-27T11:49:57.829Z,31.00
2019-04-27T11:51:00.348Z,32.20
2019-04-27T11:52:03.441Z,36.80
2019-04-27T11:53:06.297Z,40.00
2019-04-27T11:54:08.983Z,36.40
2019-04-27T11:55:11.795Z,35.40
2019-04-27T11:56:15.719Z,25.00
2019-04-27T11:57:18.296Z,33.80
2019-04-27T11:58:21.326Z,21.80
2019-04-27T11:59:23.735Z,25.60
2019-04-27T12:00:27.691Z,28.20
2019-04-27T12:01:30.342Z,22.80
2019-04-27T12:02:33.342Z,26.20
2019-04-27T12:03:35.939Z,32.40
2019-04-27T12:04:38.240Z,29.40
2019-04-27T12:05:40.628Z,20.40
2019-04-27T12:06:43.353Z,23.60
2019-04-27T12:07:47.855Z,35.40
2019-04-27T12:08:50.512Z,30.00
2019-04-27T12:09:52.433Z,22.20
2019-04-27T12:10:55.741Z,21.00
2019-04-27T12:12:12.706Z,20.80
2019-04-27T12:13:02.265Z,24.40
2019-04-27T12:14:06.212Z,28.60
2019-04-27T12:15:09.701Z,24.60
2019-04-27T12:16:11.763Z,22.00
2019-04-27T12:17:16.411Z,21.80
2019-04-27T12:18:18.515Z,21.00
2019-04-27T12:19:20.966Z,23.80
2019-04-27T12:20:23.301Z,21.00
2019-04-27T12:21:26.133Z,17.00
2019-04-27T12:22:28.474Z,21.60
2019-04-27T12:23:35.551Z,23.00
2019-04-27T12:24:35.717Z,21.20
2019-04-27T12:25:38.370Z,20.40
2019-04-27T12:26:42.962Z,20.00
2019-04-27T12:27:51.023Z,22.00
2019-04-27T12:28:56.102Z,19.80
2019-04-27T12:30:07.388Z,32.40
2019-04-27T12:31:16.340Z,32.80
2019-04-27T12:32:19.407Z,37.80
2019-04-27T12:33:21.831Z,26.00
2019-04-27T12:34:25.606Z,32.20
2019-04-27T12:35:29.249Z,33.20
2019-04-27T12:36:33.411Z,30.00
2019-04-27T12:37:35.942Z,33.60
2019-04-27T12:38:38.348Z,38.20
2019-04-27T12:39:41.519Z,34.60
2019-04-27T12:40:43.776Z,28.60
2019-04-27T12:41:46.282Z,26.20
2019-04-27T12:42:48.645Z,23.20
2019-04-27T12:43:52.030Z,20.60
2019-04-27T12:44:54.769Z,26.20
2019-04-27T12:45:57.029Z,22.40
2019-04-27T12:47:02.675Z,24.80
2019-04-27T12:48:03.789Z,22.60
2019-04-27T12:49:06.218Z,25.80
2019-04-27T12:50:10.394Z,27.20
2019-04-27T12:51:12.818Z,27.20
2019-04-27T12:52:15.919Z,23.60
2019-04-27T12:53:23.477Z,37.20
2019-04-27T12:54:42.592Z,34.80
2019-04-27T12:55:54.005Z,37.40
2019-04-27T12:57:02.540Z,34.80
2019-04-27T12:58:13.816Z,39.80
2019-04-27T12:59:17.914Z,33.60
2019-04-27T13:00:31.401Z,34.00
2019-04-27T13:01:36.003Z,34.20
2019-04-27T13:02:40.128Z,33.80
2019-04-27T13:03:42.624Z,33.20
2019-04-27T13:04:46.673Z,31.60
2019-04-27T13:05:49.579Z,26.60
2019-04-27T13:06:53.000Z,32.00
2019-04-27T13:07:55.247Z,31.20
2019-04-27T13:08:58.030Z,42.40
2019-04-27T13:10:02.033Z,37.60
2019-04-27T13:11:05.988Z,32.40
2019-04-27T13:12:08.764Z,34.40
2019-04-27T13:13:10.490Z,36.00
2019-04-27T13:14:12.788Z,42.20
2019-04-27T13:15:15.914Z,42.20
2019-04-27T13:16:18.546Z,37.00
2019-04-27T13:17:21.578Z,37.60
2019-04-27T13:18:25.835Z,40.00
2019-04-27T13:19:30.104Z,33.20
2019-04-27T13:20:32.749Z,35.60
2019-04-27T13:21:36.531Z,35.20
2019-04-27T13:22:39.584Z,51.40
2019-04-27T13:23:43.353Z,53.40
2019-04-27T13:24:46.987Z,50.00
2019-04-27T13:25:49.494Z,38.40
2019-04-27T13:26:51.907Z,45.00
2019-04-27T13:27:54.449Z,42.80
2019-04-27T13:28:58.299Z,45.00
2019-04-27T13:30:07.296Z,31.60
2019-04-27T13:31:09.873Z,40.20
2019-04-27T13:32:12.555Z,35.20
2019-04-27T13:33:17.282Z,36.80
2019-04-27T13:34:19.653Z,35.20
2019-04-27T13:35:22.430Z,33.20
2019-04-27T13:36:26.481Z,43.60
2019-04-27T13:37:33.340Z,33.60
2019-04-27T13:38:36.605Z,28.80
2019-04-27T13:39:40.299Z,43.20
2019-04-27T13:40:42.551Z,36.40
2019-04-27T13:41:46.273Z,30.20
2019-04-27T13:43:02.420Z,36.20
2019-04-27T13:44:06.579Z,32.20
2019-04-27T13:45:11.913Z,31.60
2019-04-27T13:46:32.647Z,29.80
2019-04-27T13:47:42.375Z,32.20
2019-04-27T13:48:58.862Z,36.00
2019-04-27T13:50:06.984Z,43.80
2019-04-27T13:51:26.579Z,32.60
2019-04-27T13:52:29.991Z,37.80